Clinton, IA

2:36 PM CDT on August 18, 2017 (GMT -0500)
Clinton Municipal

Weather History for KCWI - April, 2013

Change the Weather History Date:

Wednesday, April 24, 2013

  Actual Average Record
Temperature  
Mean Temperature 42 °F -  
Max Temperature 51 °F 64 °F 85 °F (1948)
Min Temperature 33 °F 40 °F 22 °F (1967)
Degree Days  
Heating Degree Days 23    
Moisture  
Dew Point 28 °F    
Average Humidity 58    
Maximum Humidity 81    
Minimum Humidity 35    
Precipitation  
Precipitation 0.00 in - - ()
Sea Level Pressure  
Sea Level Pressure 30.08 in    
Wind  
Wind Speed 10 mph (WNW)    
Max Wind Speed 20 mph    
Max Gust Speed 24 mph    
Visibility 10 miles    
Events      
Averages and records for this station are not official NWS values.
T = Trace of Precipitation, MM = Missing Value Source: NWS Daily Summary

Daily Weather History Graph

Daily Weather History Graph

Search for Another Location

Airport or City:

Trip Planner

Search our weather history database for the weather conditions in past years. The results will help you decide how hot, cold, wet, or windy it might be!

Date:

Astronomy

Apr. 24, 2013 Rise Set
Actual Time 6:07 AM CDT 7:52 PM CDT
Civil Twilight 5:37 AM CDT 8:22 PM CDT
Nautical Twilight 5:01 AM CDT 8:58 PM CDT
Astronomical Twilight 4:22 AM CDT 9:37 PM CDT
Moon 6:55 PM CDT (4/24) 5:11 AM CDT (4/24)
Length of Visible Light 14h 44m
Length of Day
13h 45m
Waxing Gibbous, 98% of the Moon is Illuminated
Apr 24
Waxing Gibbous
Apr 25
Full
May 2
Last Quarter
May 9
New
May 17
First Quarter

Hourly Weather History & Observations

Time (CDT) Temp. Windchill Dew Point Humidity Pressure Visibility Wind Dir Wind Speed Gust Speed Precip Events Conditions
12:15 AM 37.4 °F 30.8 °F 30.2 °F 75% 30.05 in 10.0 mi NNW 9.2 mph - N/A   Overcast
12:35 AM 37.4 °F 30.8 °F 28.4 °F 70% 30.05 in 10.0 mi NNW 9.2 mph - N/A   Scattered Clouds
12:55 AM 37.4 °F 31.4 °F 30.2 °F 75% 30.05 in 10.0 mi North 8.1 mph - N/A   Partly Cloudy
1:15 AM 37.4 °F 31.4 °F 30.2 °F 75% 30.05 in 10.0 mi North 8.1 mph - N/A   Partly Cloudy
1:35 AM 37.4 °F 32.1 °F 30.2 °F 75% 30.05 in 10.0 mi NNW 6.9 mph - N/A   Partly Cloudy
1:55 AM 37.4 °F 31.4 °F 28.4 °F 70% 30.04 in 10.0 mi NNW 8.1 mph - N/A   Mostly Cloudy
2:15 AM 37.4 °F 32.1 °F 28.4 °F 70% 30.03 in 10.0 mi NNW 6.9 mph - N/A   Overcast
2:35 AM 35.6 °F 29.2 °F 28.4 °F 75% 30.03 in 10.0 mi NNW 8.1 mph - N/A   Partly Cloudy
2:55 AM 35.6 °F 28.6 °F 28.4 °F 75% 30.03 in 10.0 mi NNW 9.2 mph - N/A   Scattered Clouds
3:15 AM 35.6 °F 28.0 °F 28.4 °F 75% 30.03 in 10.0 mi NW 10.4 mph - N/A   Mostly Cloudy
3:35 AM 35.6 °F 28.6 °F 28.4 °F 75% 30.04 in 10.0 mi NNW 9.2 mph - N/A   Overcast
3:55 AM 35.6 °F 29.2 °F 28.4 °F 75% 30.04 in 10.0 mi NNW 8.1 mph - N/A   Overcast
4:15 AM 35.6 °F 29.2 °F 28.4 °F 75% 30.05 in 10.0 mi NNW 8.1 mph - N/A   Overcast
4:35 AM 35.6 °F 29.9 °F 28.4 °F 75% 30.05 in 10.0 mi NNW 6.9 mph - N/A   Mostly Cloudy
4:55 AM 35.6 °F 29.9 °F 28.4 °F 75% 30.05 in 10.0 mi NW 6.9 mph - N/A   Mostly Cloudy
5:15 AM 35.6 °F 29.2 °F 28.4 °F 75% 30.06 in 10.0 mi NW 8.1 mph - N/A   Overcast
5:35 AM 33.8 °F 27.7 °F 28.4 °F 81% 30.06 in 10.0 mi NW 6.9 mph - N/A   Mostly Cloudy
5:55 AM 33.8 °F 27.7 °F 26.6 °F 75% 30.06 in 10.0 mi NW 6.9 mph - N/A   Partly Cloudy
6:15 AM 33.8 °F 27.7 °F 26.6 °F 75% 30.07 in 10.0 mi NNW 6.9 mph - N/A   Partly Cloudy
6:35 AM 33.8 °F 27.7 °F 26.6 °F 75% 30.07 in 10.0 mi NNW 6.9 mph - N/A   Partly Cloudy
6:55 AM 33.8 °F 27.0 °F 26.6 °F 75% 30.08 in 10.0 mi NW 8.1 mph - N/A   Partly Cloudy
7:15 AM 33.8 °F 26.4 °F 26.6 °F 75% 30.09 in 10.0 mi NW 9.2 mph - N/A   Clear
7:35 AM 33.8 °F 26.4 °F 26.6 °F 75% 30.09 in 10.0 mi NW 9.2 mph - N/A   Clear
7:55 AM 35.6 °F 27.5 °F 28.4 °F 75% 30.10 in 10.0 mi NW 11.5 mph - N/A   Clear
8:15 AM 35.6 °F 27.1 °F 26.6 °F 70% 30.10 in 10.0 mi NW 12.7 mph - N/A   Clear
8:35 AM 37.4 °F 28.9 °F 28.4 °F 70% 30.10 in 10.0 mi NW 13.8 mph - N/A   Clear
8:55 AM 37.4 °F 30.3 °F 28.4 °F 70% 30.11 in 10.0 mi NW 10.4 mph - N/A   Clear
9:15 AM 39.2 °F 32.5 °F 28.4 °F 65% 30.11 in 10.0 mi NW 10.4 mph - N/A   Partly Cloudy
9:35 AM 39.2 °F 32.0 °F 28.4 °F 65% 30.11 in 10.0 mi NW 11.5 mph - N/A   Clear
9:55 AM 41.0 °F 34.3 °F 28.4 °F 61% 30.12 in 10.0 mi NW 11.5 mph - N/A   Clear
10:15 AM 42.8 °F 36.6 °F 28.4 °F 57% 30.12 in 10.0 mi NNW 11.5 mph - N/A   Clear
10:35 AM 42.8 °F 37.0 °F 26.6 °F 53% 30.11 in 10.0 mi WNW 10.4 mph - N/A   Partly Cloudy
10:55 AM 42.8 °F 37.5 °F 26.6 °F 53% 30.11 in 10.0 mi WNW 9.2 mph 17.3 mph N/A   Scattered Clouds
11:15 AM 44.6 °F 39.7 °F 26.6 °F 49% 30.11 in 10.0 mi WNW 9.2 mph 18.4 mph N/A   Scattered Clouds
11:35 AM 44.6 °F 39.2 °F 26.6 °F 49% 30.11 in 10.0 mi WNW 10.4 mph - N/A   Scattered Clouds
11:55 AM 44.6 °F 39.2 °F 26.6 °F 49% 30.10 in 10.0 mi NW 10.4 mph 19.6 mph N/A   Partly Cloudy
12:15 PM 46.4 °F 39.8 °F 26.6 °F 46% 30.10 in 10.0 mi WNW 16.1 mph - N/A   Clear
12:35 PM 46.4 °F 39.0 °F 28.4 °F 50% 30.11 in 10.0 mi West 19.6 mph 24.2 mph N/A   Scattered Clouds
12:55 PM 46.4 °F 41.1 °F 26.6 °F 46% 30.11 in 10.0 mi WNW 11.5 mph 20.7 mph N/A   Scattered Clouds
1:15 PM 46.4 °F 39.5 °F 28.4 °F 50% 30.11 in 10.0 mi WNW 17.3 mph 23.0 mph N/A   Partly Cloudy
1:35 PM 48.2 °F - 26.6 °F 43% 30.10 in 10.0 mi WNW 15.0 mph 23.0 mph N/A   Partly Cloudy
1:55 PM 48.2 °F - 28.4 °F 46% 30.10 in 10.0 mi West 13.8 mph 20.7 mph N/A   Partly Cloudy
2:15 PM 48.2 °F - 26.6 °F 43% 30.10 in 10.0 mi West 13.8 mph 19.6 mph N/A   Clear
2:35 PM 48.2 °F - 28.4 °F 46% 30.10 in 10.0 mi WNW 12.7 mph - N/A   Clear
2:55 PM 50.0 °F - 28.4 °F 43% 30.10 in 10.0 mi West 13.8 mph 17.3 mph N/A   Clear
3:15 PM 50.0 °F - 26.6 °F 40% 30.10 in 10.0 mi WNW 15.0 mph - N/A   Clear
3:35 PM 51.8 °F - 26.6 °F 38% 30.10 in 10.0 mi West 15.0 mph 19.6 mph N/A   Clear
3:55 PM 51.8 °F - 24.8 °F 35% 30.10 in 10.0 mi West 10.4 mph 20.7 mph N/A   Clear
4:15 PM 51.8 °F - 24.8 °F 35% 30.09 in 10.0 mi WNW 11.5 mph 20.7 mph N/A   Clear
4:35 PM 51.8 °F - 26.6 °F 38% 30.09 in 10.0 mi West 13.8 mph 21.9 mph N/A   Clear
4:55 PM 51.8 °F - 26.6 °F 38% 30.09 in 10.0 mi West 13.8 mph 19.6 mph N/A   Clear
5:15 PM 51.8 °F - 24.8 °F 35% 30.08 in 10.0 mi West 15.0 mph 19.6 mph N/A   Clear
5:35 PM 51.8 °F - 26.6 °F 38% 30.09 in 10.0 mi West 15.0 mph 20.7 mph N/A   Clear
5:55 PM 51.8 °F - 26.6 °F 38% 30.08 in 10.0 mi WSW 15.0 mph 19.6 mph N/A   Clear
6:15 PM 50.0 °F - 26.6 °F 40% 30.09 in 10.0 mi West 12.7 mph - N/A   Partly Cloudy
6:35 PM 51.8 °F - 26.6 °F 38% 30.09 in 10.0 mi WSW 13.8 mph - N/A   Clear
6:55 PM 48.2 °F - 28.4 °F 46% 30.09 in 10.0 mi WSW 11.5 mph - N/A   Partly Cloudy
7:15 PM 48.2 °F - 28.4 °F 46% 30.09 in 10.0 mi WSW 12.7 mph 18.4 mph N/A   Scattered Clouds
7:35 PM 48.2 °F - 28.4 °F 46% 30.09 in 10.0 mi WSW 13.8 mph - N/A   Clear
7:55 PM 44.6 °F 38.8 °F 28.4 °F 53% 30.09 in 10.0 mi SW 11.5 mph - N/A   Clear
8:15 PM 44.6 °F 38.8 °F 28.4 °F 53% 30.09 in 10.0 mi SW 11.5 mph - N/A   Clear
8:35 PM 42.8 °F 36.6 °F 28.4 °F 57% 30.10 in 10.0 mi SW 11.5 mph - N/A   Clear
8:55 PM 42.8 °F 37.0 °F 28.4 °F 57% 30.10 in 10.0 mi SW 10.4 mph - N/A   Clear
9:55 PM 41.0 °F 34.3 °F 28.4 °F 61% 30.10 in 10.0 mi SSW 11.5 mph - N/A   Clear
10:15 PM 42.8 °F 36.2 °F 28.4 °F 57% 30.10 in 10.0 mi SSW 12.7 mph - N/A   Clear
10:35 PM 42.8 °F 36.2 °F 28.4 °F 57% 30.10 in 10.0 mi SSW 12.7 mph - N/A   Clear
10:55 PM 42.8 °F 35.8 °F 28.4 °F 57% 30.09 in 10.0 mi SSW 13.8 mph - N/A   Clear
11:15 PM 44.6 °F 37.8 °F 28.4 °F 53% 30.10 in 10.0 mi SW 15.0 mph - N/A   Partly Cloudy
11:35 PM 44.6 °F 38.1 °F 30.2 °F 57% 30.10 in 10.0 mi SW 13.8 mph - N/A   Mostly Cloudy
11:55 PM 44.6 °F 38.1 °F 30.2 °F 57% 30.09 in 10.0 mi SW 13.8 mph - N/A   Overcast